Terminal Aerodrome Forecast
Issued by NWS

Home | Current Version | Previous Version | Text Only | Print | Product List | Glossary On
Versions: 1 2 3 4 5 6 7 8 9 10 11 12 13 14 15 16 17 18 19 20 21 22 23 24 25 26 27 28
000
FTAK31 PANC 061735
TAFADL
TAF
PADL 061735Z 0618/0718 35007KT P6SM -SN SCT015 BKN030
      TEMPO 0618/0622 6SM -SN BKN015 BKN030
     FM062200 35008KT P6SM -SN SCT018 BKN030
      TEMPO 0622/0701 6SM -SN BKN018 BKN030
     FM070100 34009KT 6SM -SN OVC015
     FM070500 34010KT P6SM SCT015 OVC035
     FM070800 34012KT P6SM SCT015=

USA.gov is the U.S. government's official web portal to all federal, state and local government web resources and services.